sensor_id;sensor_type;location;lat;lon;timestamp;pressure;altitude;pressure_sealevel;temperature;humidity
70217;BME280;65567;55.684;37.570;2024-02-16T00:00:59;100822.72;;;-4.78;71.89
70217;BME280;65567;55.684;37.570;2024-02-16T00:03:26;100823.19;;;-4.88;69.96
70217;BME280;65567;55.684;37.570;2024-02-16T00:05:52;100833.75;;;-4.79;72.41
70217;BME280;65567;55.684;37.570;2024-02-16T00:08:19;100826.69;;;-4.86;70.77
70217;BME280;65567;55.684;37.570;2024-02-16T00:10:46;100832.84;;;-4.81;72.88
70217;BME280;65567;55.684;37.570;2024-02-16T00:13:12;100821.94;;;-4.77;73.21
70217;BME280;65567;55.684;37.570;2024-02-16T00:15:38;100826.09;;;-4.79;69.67
70217;BME280;65567;55.684;37.570;2024-02-16T00:18:08;100823.19;;;-4.88;72.76
70217;BME280;65567;55.684;37.570;2024-02-16T00:20:34;100817.38;;;-4.84;72.77
70217;BME280;65567;55.684;37.570;2024-02-16T00:23:00;100813.63;;;-4.94;72.53
70217;BME280;65567;55.684;37.570;2024-02-16T00:25:26;100824.00;;;-4.67;70.61
70217;BME280;65567;55.684;37.570;2024-02-16T00:27:52;100820.63;;;-4.66;72.12
70217;BME280;65567;55.684;37.570;2024-02-16T00:30:22;100810.00;;;-4.76;72.29
70217;BME280;65567;55.684;37.570;2024-02-16T00:32:48;100819.75;;;-4.66;70.77
70217;BME280;65567;55.684;37.570;2024-02-16T00:35:17;100801.91;;;-4.65;71.95
70217;BME280;65567;55.684;37.570;2024-02-16T00:37:45;100819.34;;;-5.00;72.00
70217;BME280;65567;55.684;37.570;2024-02-16T00:40:12;100806.59;;;-5.00;70.62
70217;BME280;65567;55.684;37.570;2024-02-16T00:42:38;100794.38;;;-4.84;72.96
70217;BME280;65567;55.684;37.570;2024-02-16T00:45:16;100809.72;;;-4.84;73.44
70217;BME280;65567;55.684;37.570;2024-02-16T00:47:42;100791.59;;;-4.90;71.91
70217;BME280;65567;55.684;37.570;2024-02-16T00:50:10;100770.22;;;-5.15;73.20
70217;BME280;65567;55.684;37.570;2024-02-16T00:52:36;100791.16;;;-5.03;74.37
70217;BME280;65567;55.684;37.570;2024-02-16T00:55:03;100797.63;;;-4.88;74.26
70217;BME280;65567;55.684;37.570;2024-02-16T00:57:29;100794.97;;;-4.91;73.85
70217;BME280;65567;55.684;37.570;2024-02-16T00:59:55;100798.72;;;-4.82;72.97
70217;BME280;65567;55.684;37.570;2024-02-16T01:02:24;100794.78;;;-4.96;74.04
70217;BME280;65567;55.684;37.570;2024-02-16T01:04:50;100800.66;;;-4.99;72.70
70217;BME280;65567;55.684;37.570;2024-02-16T01:07:17;100792.28;;;-4.94;72.18
70217;BME280;65567;55.684;37.570;2024-02-16T01:09:43;100800.53;;;-4.79;73.63
70217;BME280;65567;55.684;37.570;2024-02-16T01:12:09;100796.59;;;-4.71;70.60
70217;BME280;65567;55.684;37.570;2024-02-16T01:14:38;100797.69;;;-4.64;72.05
70217;BME280;65567;55.684;37.570;2024-02-16T01:17:04;100800.09;;;-4.67;71.08
70217;BME280;65567;55.684;37.570;2024-02-16T01:19:29;100795.31;;;-4.58;72.12
70217;BME280;65567;55.684;37.570;2024-02-16T01:21:55;100800.28;;;-4.62;71.36
70217;BME280;65567;55.684;37.570;2024-02-16T01:24:24;100796.34;;;-4.53;73.10
70217;BME280;65567;55.684;37.570;2024-02-16T01:26:49;100803.44;;;-4.45;72.01
70217;BME280;65567;55.684;37.570;2024-02-16T01:29:16;100791.16;;;-4.56;71.56
70217;BME280;65567;55.684;37.570;2024-02-16T01:31:42;100798.88;;;-4.54;72.83
70217;BME280;65567;55.684;37.570;2024-02-16T01:34:08;100802.50;;;-4.48;72.06
70217;BME280;65567;55.684;37.570;2024-02-16T01:36:33;100787.72;;;-4.56;71.13
70217;BME280;65567;55.684;37.570;2024-02-16T01:38:59;100793.28;;;-4.44;73.38
70217;BME280;65567;55.684;37.570;2024-02-16T01:41:25;100797.78;;;-4.37;73.27
70217;BME280;65567;55.684;37.570;2024-02-16T01:43:54;100799.41;;;-4.39;73.06
70217;BME280;65567;55.684;37.570;2024-02-16T01:46:23;100796.06;;;-4.38;73.91
70217;BME280;65567;55.684;37.570;2024-02-16T01:48:49;100779.41;;;-4.26;73.15
70217;BME280;65567;55.684;37.570;2024-02-16T01:51:16;100783.16;;;-4.41;74.35
70217;BME280;65567;55.684;37.570;2024-02-16T01:53:42;100786.53;;;-4.42;73.08
70217;BME280;65567;55.684;37.570;2024-02-16T01:56:08;100789.94;;;-4.41;72.67
70217;BME280;65567;55.684;37.570;2024-02-16T01:58:34;100790.22;;;-4.34;72.76
70217;BME280;65567;55.684;37.570;2024-02-16T02:00:59;100774.41;;;-4.22;73.40
70217;BME280;65567;55.684;37.570;2024-02-16T02:03:25;100775.13;;;-4.26;73.58
70217;BME280;65567;55.684;37.570;2024-02-16T02:05:51;100779.75;;;-4.16;72.50
70217;BME280;65567;55.684;37.570;2024-02-16T02:08:19;100775.50;;;-4.15;72.84
70217;BME280;65567;55.684;37.570;2024-02-16T02:10:45;100770.28;;;-4.18;73.38
70217;BME280;65567;55.684;37.570;2024-02-16T02:13:11;100770.38;;;-4.15;73.40
70217;BME280;65567;55.684;37.570;2024-02-16T02:15:37;100777.25;;;-4.14;72.79
70217;BME280;65567;55.684;37.570;2024-02-16T02:18:03;100781.69;;;-4.08;72.68
70217;BME280;65567;55.684;37.570;2024-02-16T02:20:31;100777.09;;;-4.19;70.49
70217;BME280;65567;55.684;37.570;2024-02-16T02:22:57;100774.59;;;-4.17;72.08
70217;BME280;65567;55.684;37.570;2024-02-16T02:25:23;100776.22;;;-4.19;73.15
70217;BME280;65567;55.684;37.570;2024-02-16T02:27:49;100770.69;;;-4.32;69.95
70217;BME280;65567;55.684;37.570;2024-02-16T02:30:16;100771.38;;;-4.36;71.60
70217;BME280;65567;55.684;37.570;2024-02-16T02:32:42;100794.31;;;-4.39;71.33
70217;BME280;65567;55.684;37.570;2024-02-16T02:35:08;100780.16;;;-4.29;71.78
70217;BME280;65567;55.684;37.570;2024-02-16T02:37:34;100769.25;;;-4.23;71.11
70217;BME280;65567;55.684;37.570;2024-02-16T02:40:00;100770.88;;;-4.25;71.10
70217;BME280;65567;55.684;37.570;2024-02-16T02:42:26;100773.06;;;-4.12;70.93
70217;BME280;65567;55.684;37.570;2024-02-16T02:44:53;100788.66;;;-4.30;70.16
70217;BME280;65567;55.684;37.570;2024-02-16T02:47:19;100774.88;;;-4.34;72.00
70217;BME280;65567;55.684;37.570;2024-02-16T02:49:45;100780.47;;;-4.44;70.70
70217;BME280;65567;55.684;37.570;2024-02-16T02:52:11;100784.59;;;-4.48;69.04
70217;BME280;65567;55.684;37.570;2024-02-16T02:54:36;100780.78;;;-4.35;70.83
70217;BME280;65567;55.684;37.570;2024-02-16T02:57:03;100775.50;;;-4.41;70.72
70217;BME280;65567;55.684;37.570;2024-02-16T02:59:29;100792.56;;;-4.40;70.83
70217;BME280;65567;55.684;37.570;2024-02-16T03:01:55;100788.00;;;-4.49;70.77
70217;BME280;65567;55.684;37.570;2024-02-16T03:04:20;100781.91;;;-4.52;73.68
70217;BME280;65567;55.684;37.570;2024-02-16T03:06:46;100803.72;;;-4.38;72.89
70217;BME280;65567;55.684;37.570;2024-02-16T03:09:12;100795.41;;;-4.56;68.95
70217;BME280;65567;55.684;37.570;2024-02-16T03:11:39;100796.22;;;-4.57;71.28
70217;BME280;65567;55.684;37.570;2024-02-16T03:14:05;100793.97;;;-4.48;71.35
70217;BME280;65567;55.684;37.570;2024-02-16T03:16:32;100802.78;;;-4.40;71.53
70217;BME280;65567;55.684;37.570;2024-02-16T03:18:58;100802.91;;;-4.37;70.86
70217;BME280;65567;55.684;37.570;2024-02-16T03:21:24;100802.41;;;-4.26;71.28
70217;BME280;65567;55.684;37.570;2024-02-16T03:23:50;100800.78;;;-4.24;71.65
70217;BME280;65567;55.684;37.570;2024-02-16T03:26:18;100806.44;;;-4.33;71.86
70217;BME280;65567;55.684;37.570;2024-02-16T03:28:47;100793.22;;;-4.45;69.70
70217;BME280;65567;55.684;37.570;2024-02-16T03:31:21;100814.31;;;-4.27;71.77
70217;BME280;65567;55.684;37.570;2024-02-16T03:33:48;100811.88;;;-4.24;71.52
70217;BME280;65567;55.684;37.570;2024-02-16T03:36:14;100809.22;;;-4.27;71.28
70217;BME280;65567;55.684;37.570;2024-02-16T03:38:47;100813.56;;;-4.24;72.02
70217;BME280;65567;55.684;37.570;2024-02-16T03:41:19;100818.81;;;-4.21;72.53
70217;BME280;65567;55.684;37.570;2024-02-16T03:43:45;100825.03;;;-4.13;71.75
70217;BME280;65567;55.684;37.570;2024-02-16T03:46:11;100822.50;;;-4.13;71.73
70217;BME280;65567;55.684;37.570;2024-02-16T03:48:40;100817.78;;;-4.26;72.28
70217;BME280;65567;55.684;37.570;2024-02-16T03:51:06;100815.41;;;-4.20;71.42
70217;BME280;65567;55.684;37.570;2024-02-16T03:53:32;100809.69;;;-4.13;nan
70217;BME280;65567;55.684;37.570;2024-02-16T03:55:59;100807.09;;;-4.15;71.61
70217;BME280;65567;55.684;37.570;2024-02-16T03:58:25;100807.59;;;-4.25;71.39
70217;BME280;65567;55.684;37.570;2024-02-16T04:00:52;100800.69;;;-4.27;71.21
70217;BME280;65567;55.684;37.570;2024-02-16T04:03:18;100802.03;;;-4.13;71.46
70217;BME280;65567;55.684;37.570;2024-02-16T04:05:45;100803.44;;;-4.21;70.41
70217;BME280;65567;55.684;37.570;2024-02-16T04:08:13;100793.31;;;-4.18;70.79
70217;BME280;65567;55.684;37.570;2024-02-16T04:10:39;100799.47;;;-4.13;71.52
70217;BME280;65567;55.684;37.570;2024-02-16T04:13:05;100795.31;;;-4.09;71.95
70217;BME280;65567;55.684;37.570;2024-02-16T04:15:31;100780.88;;;-4.07;71.32
70217;BME280;65567;55.684;37.570;2024-02-16T04:17:59;100788.28;;;-4.15;71.60
70217;BME280;65567;55.684;37.570;2024-02-16T04:20:25;100790.03;;;-4.14;71.31
70217;BME280;65567;55.684;37.570;2024-02-16T04:22:51;100780.81;;;-4.09;72.09
70217;BME280;65567;55.684;37.570;2024-02-16T04:25:17;100781.03;;;-4.03;70.94
70217;BME280;65567;55.684;37.570;2024-02-16T04:27:42;100782.13;;;-4.20;71.80
70217;BME280;65567;55.684;37.570;2024-02-16T04:30:08;100741.31;;;-4.43;71.66
70217;BME280;65567;55.684;37.570;2024-02-16T04:32:37;100779.59;;;-4.20;72.34
70217;BME280;65567;55.684;37.570;2024-02-16T04:35:04;100772.94;;;-4.15;71.65
70217;BME280;65567;55.684;37.570;2024-02-16T04:37:30;100771.72;;;-4.26;70.49
70217;BME280;65567;55.684;37.570;2024-02-16T04:39:55;100786.84;;;-4.33;71.55
70217;BME280;65567;55.684;37.570;2024-02-16T04:42:21;100785.81;;;-4.38;71.54
70217;BME280;65567;55.684;37.570;2024-02-16T04:44:47;100792.69;;;-4.37;70.98
70217;BME280;65567;55.684;37.570;2024-02-16T04:47:14;100791.34;;;-4.25;71.66
70217;BME280;65567;55.684;37.570;2024-02-16T04:49:40;100791.91;;;-4.34;70.71
70217;BME280;65567;55.684;37.570;2024-02-16T04:52:06;100781.06;;;-4.27;71.62
70217;BME280;65567;55.684;37.570;2024-02-16T04:54:36;100791.34;;;-4.25;70.13
70217;BME280;65567;55.684;37.570;2024-02-16T04:57:05;100787.06;;;-4.26;71.03
70217;BME280;65567;55.684;37.570;2024-02-16T04:59:31;100797.66;;;-4.40;69.76
70217;BME280;65567;55.684;37.570;2024-02-16T05:01:57;100795.28;;;-4.35;72.76
70217;BME280;65567;55.684;37.570;2024-02-16T05:04:23;100792.88;;;-4.31;72.45
70217;BME280;65567;55.684;37.570;2024-02-16T05:06:51;100782.72;;;-4.29;71.83
70217;BME280;65567;55.684;37.570;2024-02-16T05:09:18;100792.22;;;-4.49;69.57
70217;BME280;65567;55.684;37.570;2024-02-16T05:11:44;100774.66;;;-4.40;71.65
70217;BME280;65567;55.684;37.570;2024-02-16T05:14:10;100783.75;;;-4.48;71.45
70217;BME280;65567;55.684;37.570;2024-02-16T05:16:46;100776.75;;;-4.54;72.65
70217;BME280;65567;55.684;37.570;2024-02-16T05:19:15;100782.81;;;-4.50;72.05
70217;BME280;65567;55.684;37.570;2024-02-16T05:21:41;100779.75;;;-4.40;72.99
70217;BME280;65567;55.684;37.570;2024-02-16T05:24:07;100764.72;;;-4.31;72.66
70217;BME280;65567;55.684;37.570;2024-02-16T05:26:34;100768.19;;;-4.54;70.96
70217;BME280;65567;55.684;37.570;2024-02-16T05:28:59;100775.53;;;-4.39;71.82
70217;BME280;65567;55.684;37.570;2024-02-16T05:31:25;100786.59;;;-4.40;71.14
70217;BME280;65567;55.684;37.570;2024-02-16T05:33:51;100772.50;;;-4.53;71.59
70217;BME280;65567;55.684;37.570;2024-02-16T05:36:21;100802.69;;;-4.43;72.16
70217;BME280;65567;55.684;37.570;2024-02-16T05:38:50;100794.41;;;-4.60;70.99
70217;BME280;65567;55.684;37.570;2024-02-16T05:41:17;100797.78;;;-4.37;72.24
70217;BME280;65567;55.684;37.570;2024-02-16T05:43:46;100801.66;;;-4.24;71.01
70217;BME280;65567;55.684;37.570;2024-02-16T05:46:15;100807.03;;;-4.16;71.14
70217;BME280;65567;55.684;37.570;2024-02-16T05:48:42;100810.72;;;-4.08;70.78
70217;BME280;65567;55.684;37.570;2024-02-16T05:51:08;100815.75;;;-4.11;71.13
70217;BME280;65567;55.684;37.570;2024-02-16T05:53:34;100824.88;;;-4.18;71.14
70217;BME280;65567;55.684;37.570;2024-02-16T05:56:00;100814.28;;;-4.28;71.19
70217;BME280;65567;55.684;37.570;2024-02-16T05:58:27;100812.09;;;-4.18;71.54
70217;BME280;65567;55.684;37.570;2024-02-16T06:00:53;100811.53;;;-4.09;72.13
70217;BME280;65567;55.684;37.570;2024-02-16T06:03:20;100816.97;;;-4.00;70.95
70217;BME280;65567;55.684;37.570;2024-02-16T06:05:46;100817.69;;;-4.04;70.02
70217;BME280;65567;55.684;37.570;2024-02-16T06:08:12;100818.13;;;-3.91;70.63
70217;BME280;65567;55.684;37.570;2024-02-16T06:10:38;100813.69;;;-3.95;70.63
70217;BME280;65567;55.684;37.570;2024-02-16T06:13:05;100808.69;;;-3.92;70.52
70217;BME280;65567;55.684;37.570;2024-02-16T06:15:31;100813.38;;;-4.05;70.65
70217;BME280;65567;55.684;37.570;2024-02-16T06:17:59;100812.00;;;-3.95;71.94
70217;BME280;65567;55.684;37.570;2024-02-16T06:20:26;100815.38;;;-3.96;71.26
70217;BME280;65567;55.684;37.570;2024-02-16T06:22:52;100817.94;;;-3.96;71.56
70217;BME280;65567;55.684;37.570;2024-02-16T06:25:17;100823.78;;;-4.00;70.58
70217;BME280;65567;55.684;37.570;2024-02-16T06:27:44;100820.50;;;-3.96;71.74
70217;BME280;65567;55.684;37.570;2024-02-16T06:30:11;100824.56;;;-3.77;71.49
70217;BME280;65567;55.684;37.570;2024-02-16T06:32:39;100825.47;;;-3.75;70.76
70217;BME280;65567;55.684;37.570;2024-02-16T06:35:07;100821.94;;;-3.78;70.58
70217;BME280;65567;55.684;37.570;2024-02-16T06:37:33;100830.88;;;-3.66;70.94
70217;BME280;65567;55.684;37.570;2024-02-16T06:39:59;100834.59;;;-3.57;71.32
70217;BME280;65567;55.684;37.570;2024-02-16T06:42:24;100833.91;;;-3.52;70.88
70217;BME280;65567;55.684;37.570;2024-02-16T06:44:50;100822.13;;;-3.46;70.60
70217;BME280;65567;55.684;37.570;2024-02-16T06:47:16;100828.25;;;-3.41;70.60
70217;BME280;65567;55.684;37.570;2024-02-16T06:49:42;100825.00;;;-3.36;70.90
70217;BME280;65567;55.684;37.570;2024-02-16T06:52:08;100830.91;;;-3.38;70.72
70217;BME280;65567;55.684;37.570;2024-02-16T06:54:35;100824.16;;;-3.36;70.77
70217;BME280;65567;55.684;37.570;2024-02-16T06:57:00;100820.25;;;-3.25;70.57
70217;BME280;65567;55.684;37.570;2024-02-16T06:59:27;100809.06;;;-3.27;71.21
70217;BME280;65567;55.684;37.570;2024-02-16T07:01:52;100811.88;;;-3.19;70.84
70217;BME280;65567;55.684;37.570;2024-02-16T07:04:18;100813.50;;;-3.21;69.72
70217;BME280;65567;55.684;37.570;2024-02-16T07:06:44;100821.16;;;-3.23;69.01
70217;BME280;65567;55.684;37.570;2024-02-16T07:09:10;100815.00;;;-3.28;70.10
70217;BME280;65567;55.684;37.570;2024-02-16T07:11:39;100828.88;;;-3.21;70.69
70217;BME280;65567;55.684;37.570;2024-02-16T07:14:05;100827.00;;;-3.27;69.80
70217;BME280;65567;55.684;37.570;2024-02-16T07:16:33;100823.44;;;-3.03;70.00
70217;BME280;65567;55.684;37.570;2024-02-16T07:18:59;100820.22;;;-2.97;69.97
70217;BME280;65567;55.684;37.570;2024-02-16T07:21:25;100821.78;;;-3.03;70.09
70217;BME280;65567;55.684;37.570;2024-02-16T07:23:52;100822.59;;;-3.04;70.51
70217;BME280;65567;55.684;37.570;2024-02-16T07:26:18;100822.59;;;-3.04;69.78
70217;BME280;65567;55.684;37.570;2024-02-16T07:28:44;100813.25;;;-3.02;70.08
70217;BME280;65567;55.684;37.570;2024-02-16T07:31:10;100815.91;;;-2.99;70.74
70217;BME280;65567;55.684;37.570;2024-02-16T07:33:36;100805.84;;;-2.92;70.60
70217;BME280;65567;55.684;37.570;2024-02-16T07:36:03;100799.19;;;-2.86;70.81
70217;BME280;65567;55.684;37.570;2024-02-16T07:38:29;100808.38;;;-2.94;72.18
70217;BME280;65567;55.684;37.570;2024-02-16T07:40:55;100802.09;;;-3.04;71.30
70217;BME280;65567;55.684;37.570;2024-02-16T07:43:21;100800.53;;;-2.99;71.03
70217;BME280;65567;55.684;37.570;2024-02-16T07:45:50;100800.78;;;-2.89;71.49
70217;BME280;65567;55.684;37.570;2024-02-16T07:48:16;100809.69;;;-2.78;71.15
70217;BME280;65567;55.684;37.570;2024-02-16T07:50:41;100812.25;;;-2.78;70.73
70217;BME280;65567;55.684;37.570;2024-02-16T07:53:07;100812.88;;;-2.85;71.22
70217;BME280;65567;55.684;37.570;2024-02-16T07:55:35;100810.09;;;-2.93;69.80
70217;BME280;65567;55.684;37.570;2024-02-16T07:58:00;100816.41;;;-2.82;70.40
70217;BME280;65567;55.684;37.570;2024-02-16T08:00:27;100811.25;;;-2.83;70.88
70217;BME280;65567;55.684;37.570;2024-02-16T08:02:54;100806.28;;;-2.77;70.98
70217;BME280;65567;55.684;37.570;2024-02-16T08:05:19;100818.28;;;-2.76;71.42
70217;BME280;65567;55.684;37.570;2024-02-16T08:07:46;100825.84;;;-2.80;71.47
70217;BME280;65567;55.684;37.570;2024-02-16T08:10:12;100825.34;;;-2.69;71.22
70217;BME280;65567;55.684;37.570;2024-02-16T08:12:38;100842.19;;;-2.77;70.04
70217;BME280;65567;55.684;37.570;2024-02-16T08:15:05;100850.06;;;-2.71;70.31
70217;BME280;65567;55.684;37.570;2024-02-16T08:17:35;100834.91;;;-2.61;71.07
70217;BME280;65567;55.684;37.570;2024-02-16T08:20:00;100843.63;;;-2.56;71.12
70217;BME280;65567;55.684;37.570;2024-02-16T08:22:27;100835.84;;;-2.59;70.48
70217;BME280;65567;55.684;37.570;2024-02-16T08:24:52;100850.59;;;-2.52;71.01
70217;BME280;65567;55.684;37.570;2024-02-16T08:27:18;100850.03;;;-2.42;71.02
70217;BME280;65567;55.684;37.570;2024-02-16T08:29:44;100847.53;;;-2.40;70.00
70217;BME280;65567;55.684;37.570;2024-02-16T08:32:10;100832.16;;;-2.39;71.22
70217;BME280;65567;55.684;37.570;2024-02-16T08:34:37;100813.84;;;-2.51;69.63
70217;BME280;65567;55.684;37.570;2024-02-16T08:37:04;100826.22;;;-2.38;70.91
70217;BME280;65567;55.684;37.570;2024-02-16T08:39:30;100831.44;;;-2.33;70.85
70217;BME280;65567;55.684;37.570;2024-02-16T08:42:00;100837.69;;;-2.25;70.91
70217;BME280;65567;55.684;37.570;2024-02-16T08:44:26;100837.69;;;-2.25;71.05
70217;BME280;65567;55.684;37.570;2024-02-16T08:46:52;100840.28;;;-2.23;71.03
70217;BME280;65567;55.684;37.570;2024-02-16T08:49:19;100819.75;;;-2.23;70.64
70217;BME280;65567;55.684;37.570;2024-02-16T08:51:44;100821.59;;;-2.18;71.53
70217;BME280;65567;55.684;37.570;2024-02-16T08:54:13;100832.00;;;-2.13;71.54
70217;BME280;65567;55.684;37.570;2024-02-16T08:56:39;100826.94;;;-2.10;72.62
70217;BME280;65567;55.684;37.570;2024-02-16T08:59:05;100843.28;;;-2.08;72.37
70217;BME280;65567;55.684;37.570;2024-02-16T09:01:32;100826.91;;;-2.11;72.77
70217;BME280;65567;55.684;37.570;2024-02-16T09:03:58;100828.16;;;-1.95;72.83
70217;BME280;65567;55.684;37.570;2024-02-16T09:06:24;100835.97;;;-1.92;72.64
70217;BME280;65567;55.684;37.570;2024-02-16T09:08:50;100842.53;;;-2.04;72.92
70217;BME280;65567;55.684;37.570;2024-02-16T09:11:16;100842.75;;;-1.94;72.49
70217;BME280;65567;55.684;37.570;2024-02-16T09:13:43;100841.19;;;-1.89;72.19
70217;BME280;65567;55.684;37.570;2024-02-16T09:16:09;100838.34;;;-2.00;71.94
70217;BME280;65567;55.684;37.570;2024-02-16T09:18:34;100829.00;;;-1.96;71.69
70217;BME280;65567;55.684;37.570;2024-02-16T09:21:02;100823.22;;;-1.88;72.99
70217;BME280;65567;55.684;37.570;2024-02-16T09:23:28;100824.38;;;-1.76;72.45
70217;BME280;65567;55.684;37.570;2024-02-16T09:25:54;100827.16;;;-1.69;72.38
70217;BME280;65567;55.684;37.570;2024-02-16T09:28:20;100826.00;;;-1.80;72.96
70217;BME280;65567;55.684;37.570;2024-02-16T09:30:47;100827.00;;;-1.75;72.20
70217;BME280;65567;55.684;37.570;2024-02-16T09:33:13;100820.03;;;-1.79;72.44
70217;BME280;65567;55.684;37.570;2024-02-16T09:35:40;100817.47;;;-1.79;71.68
70217;BME280;65567;55.684;37.570;2024-02-16T09:38:06;100819.13;;;-1.81;71.03
70217;BME280;65567;55.684;37.570;2024-02-16T09:40:32;100817.41;;;-1.82;70.73
70217;BME280;65567;55.684;37.570;2024-02-16T09:42:58;100791.22;;;-2.01;71.89
70217;BME280;65567;55.684;37.570;2024-02-16T09:45:25;100815.50;;;-1.89;70.36
70217;BME280;65567;55.684;37.570;2024-02-16T09:47:52;100816.63;;;-1.79;72.04
70217;BME280;65567;55.684;37.570;2024-02-16T09:50:20;100813.25;;;-1.77;71.48
70217;BME280;65567;55.684;37.570;2024-02-16T09:52:49;100804.81;;;-1.71;70.93
70217;BME280;65567;55.684;37.570;2024-02-16T09:55:16;100802.44;;;-1.63;72.14
70217;BME280;65567;55.684;37.570;2024-02-16T09:57:43;100777.81;;;-1.54;70.87
70217;BME280;65567;55.684;37.570;2024-02-16T10:00:10;100770.88;;;-1.58;72.82
70217;BME280;65567;55.684;37.570;2024-02-16T10:02:43;100769.22;;;-1.56;72.19
70217;BME280;65567;55.684;37.570;2024-02-16T10:05:21;100770.47;;;-1.38;73.06
70217;BME280;65567;55.684;37.570;2024-02-16T10:07:48;100761.81;;;-1.42;72.33
70217;BME280;65567;55.684;37.570;2024-02-16T10:10:27;100773.22;;;-1.30;70.41
70217;BME280;65567;55.684;37.570;2024-02-16T10:13:05;100767.28;;;-1.28;71.89
70217;BME280;65567;55.684;37.570;2024-02-16T10:15:31;100774.47;;;-1.13;71.56
70217;BME280;65567;55.684;37.570;2024-02-16T10:17:59;100776.59;;;-1.33;68.24
70217;BME280;65567;55.684;37.570;2024-02-16T10:20:25;100774.72;;;-1.40;67.77
70217;BME280;65567;55.684;37.570;2024-02-16T10:23:11;100785.34;;;-1.25;70.36
70217;BME280;65567;55.684;37.570;2024-02-16T10:25:38;100774.94;;;-1.31;71.63
70217;BME280;65567;55.684;37.570;2024-02-16T10:28:09;100785.38;;;-1.23;71.43
70217;BME280;65567;55.684;37.570;2024-02-16T10:30:37;100771.97;;;-1.48;68.64
70217;BME280;65567;55.684;37.570;2024-02-16T10:33:05;100770.72;;;-1.27;70.43
70217;BME280;65567;55.684;37.570;2024-02-16T10:35:33;100769.66;;;-1.36;69.88
70217;BME280;65567;55.684;37.570;2024-02-16T10:38:01;100780.06;;;-1.31;69.86
70217;BME280;65567;55.684;37.570;2024-02-16T10:40:30;100767.75;;;-1.44;67.30
70217;BME280;65567;55.684;37.570;2024-02-16T10:42:56;100765.69;;;-1.23;69.25
70217;BME280;65567;55.684;37.570;2024-02-16T10:45:22;100763.91;;;-1.25;69.01
70217;BME280;65567;55.684;37.570;2024-02-16T10:47:49;100775.00;;;-1.26;68.87
70217;BME280;65567;55.684;37.570;2024-02-16T10:50:15;100758.31;;;-1.47;69.07
70217;BME280;65567;55.684;37.570;2024-02-16T10:52:43;100772.34;;;-1.33;70.07
70217;BME280;65567;55.684;37.570;2024-02-16T10:55:12;100775.88;;;-1.27;69.37
70217;BME280;65567;55.684;37.570;2024-02-16T10:57:39;100762.94;;;-1.30;68.59
70217;BME280;65567;55.684;37.570;2024-02-16T11:00:09;100776.00;;;-1.21;69.04
70217;BME280;65567;55.684;37.570;2024-02-16T11:02:55;100777.69;;;-1.23;67.34
70217;BME280;65567;55.684;37.570;2024-02-16T11:05:41;100777.38;;;-1.36;67.92
70217;BME280;65567;55.684;37.570;2024-02-16T11:08:20;100790.22;;;-1.37;68.26
70217;BME280;65567;55.684;37.570;2024-02-16T11:10:59;100789.53;;;-1.30;70.24
70217;BME280;65567;55.684;37.570;2024-02-16T11:13:27;100791.50;;;-1.18;69.81
70217;BME280;65567;55.684;37.570;2024-02-16T11:16:09;100780.94;;;-1.30;69.71
70217;BME280;65567;55.684;37.570;2024-02-16T11:18:40;100775.13;;;-1.22;69.01
70217;BME280;65567;55.684;37.570;2024-02-16T11:21:12;100783.78;;;-1.18;67.96
70217;BME280;65567;55.684;37.570;2024-02-16T11:23:40;100789.13;;;-1.09;69.70
70217;BME280;65567;55.684;37.570;2024-02-16T11:26:09;100781.56;;;-1.03;70.51
70217;BME280;65567;55.684;37.570;2024-02-16T11:28:38;100783.22;;;-1.05;70.60
70217;BME280;65567;55.684;37.570;2024-02-16T11:31:04;100775.63;;;-1.00;70.05
70217;BME280;65567;55.684;37.570;2024-02-16T11:33:30;100774.88;;;-0.94;69.10
70217;BME280;65567;55.684;37.570;2024-02-16T11:35:58;100763.63;;;-0.98;69.55
70217;BME280;65567;55.684;37.570;2024-02-16T11:38:24;100763.72;;;-0.95;69.86
70217;BME280;65567;55.684;37.570;2024-02-16T11:40:58;100765.31;;;-1.00;70.20
70217;BME280;65567;55.684;37.570;2024-02-16T11:43:24;100759.28;;;-1.01;70.03
70217;BME280;65567;55.684;37.570;2024-02-16T11:45:51;100762.13;;;-0.90;69.87
70217;BME280;65567;55.684;37.570;2024-02-16T11:48:27;100767.97;;;-0.95;66.94
70217;BME280;65567;55.684;37.570;2024-02-16T11:51:01;100757.84;;;-0.88;70.53
70217;BME280;65567;55.684;37.570;2024-02-16T11:53:28;100757.69;;;-0.95;70.63
70217;BME280;65567;55.684;37.570;2024-02-16T11:55:54;100762.63;;;-1.05;69.47
70217;BME280;65567;55.684;37.570;2024-02-16T11:58:20;100756.09;;;-0.90;71.38
70217;BME280;65567;55.684;37.570;2024-02-16T12:00:46;100744.13;;;-0.88;71.42
70217;BME280;65567;55.684;37.570;2024-02-16T12:03:33;100761.94;;;-0.97;69.87
70217;BME280;65567;55.684;37.570;2024-02-16T12:05:59;100758.59;;;-0.93;71.02
70217;BME280;65567;55.684;37.570;2024-02-16T12:08:33;100752.81;;;-0.83;71.33
70217;BME280;65567;55.684;37.570;2024-02-16T12:11:00;100765.94;;;-0.69;71.61
70217;BME280;65567;55.684;37.570;2024-02-16T12:13:25;100771.22;;;-0.61;71.30
70217;BME280;65567;55.684;37.570;2024-02-16T12:15:52;100779.91;;;-0.56;71.25
70217;BME280;65567;55.684;37.570;2024-02-16T12:18:25;100768.91;;;-0.49;70.78
70217;BME280;65567;55.684;37.570;2024-02-16T12:21:17;100779.69;;;-0.69;71.37
70217;BME280;65567;55.684;37.570;2024-02-16T12:23:44;100783.91;;;-0.71;70.00
70217;BME280;65567;55.684;37.570;2024-02-16T12:26:10;100771.00;;;-0.74;69.50
70217;BME280;65567;55.684;37.570;2024-02-16T12:28:36;100772.44;;;-0.88;69.10
70217;BME280;65567;55.684;37.570;2024-02-16T12:31:02;100781.13;;;-0.81;69.50
70217;BME280;65567;55.684;37.570;2024-02-16T12:33:29;100768.28;;;-0.80;69.91
70217;BME280;65567;55.684;37.570;2024-02-16T12:35:57;100776.03;;;-0.78;70.50
70217;BME280;65567;55.684;37.570;2024-02-16T12:38:23;100783.72;;;-0.81;69.88
70217;BME280;65567;55.684;37.570;2024-02-16T12:40:49;100775.63;;;-0.98;69.71